createdAt,value
2023-01-08T00:01:39.430Z,60.00
2023-01-08T00:04:07.840Z,59.90
2023-01-08T00:06:36.832Z,59.80
2023-01-08T00:09:06.589Z,59.60
2023-01-08T00:11:35.064Z,59.50
2023-01-08T00:14:03.594Z,59.70
2023-01-08T00:16:32.513Z,59.80
2023-01-08T00:19:00.816Z,59.60
2023-01-08T00:21:29.878Z,59.80
2023-01-08T00:23:58.286Z,59.60
2023-01-08T00:26:27.977Z,59.60
2023-01-08T00:28:56.895Z,59.70
2023-01-08T00:31:25.673Z,59.70
2023-01-08T00:33:54.152Z,59.70
2023-01-08T00:36:22.772Z,59.80
2023-01-08T00:38:51.315Z,59.60
2023-01-08T00:41:19.790Z,59.70
2023-01-08T00:43:49.443Z,59.60
2023-01-08T00:46:17.827Z,59.60
2023-01-08T00:48:46.213Z,59.70
2023-01-08T00:51:14.886Z,59.80
2023-01-08T00:53:43.324Z,59.50
2023-01-08T00:56:12.380Z,59.80
2023-01-08T00:58:40.697Z,59.90
2023-01-08T01:01:15.182Z,59.80
2023-01-08T01:03:45.013Z,59.70
2023-01-08T01:06:15.096Z,59.90
2023-01-08T01:08:44.318Z,59.80
2023-01-08T01:11:24.613Z,59.80
2023-01-08T01:13:55.323Z,59.70
2023-01-08T01:16:26.277Z,59.70
2023-01-08T01:18:56.667Z,59.80
2023-01-08T01:21:28.074Z,59.70
2023-01-08T01:23:58.687Z,59.70
2023-01-08T01:26:28.063Z,59.50
2023-01-08T01:28:58.699Z,59.60
2023-01-08T01:31:31.177Z,59.60
2023-01-08T01:34:00.011Z,59.50
2023-01-08T01:36:28.871Z,59.60
2023-01-08T01:38:58.845Z,59.60
2023-01-08T01:41:29.703Z,59.50
2023-01-08T01:43:59.609Z,59.30
2023-01-08T01:46:38.180Z,59.40
2023-01-08T01:49:16.692Z,59.20
2023-01-08T01:51:50.664Z,59.80
2023-01-08T01:54:20.059Z,59.20
2023-01-08T01:56:48.875Z,59.50
2023-01-08T01:59:17.935Z,59.30
2023-01-08T02:01:48.252Z,59.50
2023-01-08T02:04:17.175Z,59.50
2023-01-08T02:06:55.363Z,59.30
2023-01-08T02:09:41.837Z,59.40
2023-01-08T02:12:18.158Z,59.40
2023-01-08T02:15:04.207Z,59.50
2023-01-08T02:17:45.552Z,59.20
2023-01-08T02:20:19.341Z,59.40
2023-01-08T02:23:15.419Z,59.40
2023-01-08T02:26:14.652Z,59.30
2023-01-08T02:28:48.201Z,59.30
2023-01-08T02:31:18.799Z,59.40
2023-01-08T02:33:47.250Z,59.30
2023-01-08T02:36:35.575Z,59.30
2023-01-08T02:39:30.926Z,59.30
2023-01-08T02:42:10.259Z,59.30
2023-01-08T02:44:56.503Z,59.10
2023-01-08T02:47:31.959Z,59.30
2023-01-08T02:50:14.564Z,59.10
2023-01-08T02:52:53.653Z,59.30
2023-01-08T02:55:24.487Z,59.40
2023-01-08T02:57:55.630Z,59.20
2023-01-08T03:00:24.876Z,59.10
2023-01-08T03:03:03.025Z,59.10
2023-01-08T03:05:32.429Z,58.80
2023-01-08T03:08:01.165Z,59.00
2023-01-08T03:10:31.583Z,59.10
2023-01-08T03:13:05.734Z,59.10
2023-01-08T03:15:38.891Z,59.20
2023-01-08T03:18:12.355Z,59.10
2023-01-08T03:20:40.914Z,59.00
2023-01-08T03:23:12.150Z,59.00
2023-01-08T03:25:44.408Z,58.90
2023-01-08T03:28:21.385Z,58.90
2023-01-08T03:30:53.897Z,58.70
2023-01-08T03:33:25.447Z,58.40
2023-01-08T03:35:58.105Z,58.50
2023-01-08T03:38:30.515Z,58.50
2023-01-08T03:41:05.658Z,58.50
2023-01-08T03:43:35.378Z,58.50
2023-01-08T03:46:08.570Z,58.50
2023-01-08T03:48:37.951Z,58.60
2023-01-08T03:51:10.058Z,58.60
2023-01-08T03:53:39.053Z,59.20
2023-01-08T03:56:08.511Z,58.70
2023-01-08T03:58:38.312Z,58.50
2023-01-08T04:01:07.053Z,58.70
2023-01-08T04:03:35.384Z,58.60
2023-01-08T04:06:03.877Z,58.70
2023-01-08T04:08:32.212Z,58.60
2023-01-08T04:11:00.528Z,58.70
2023-01-08T04:13:28.832Z,58.70
2023-01-08T04:15:59.080Z,58.60
2023-01-08T04:18:27.508Z,58.60
2023-01-08T04:20:55.856Z,58.70
2023-01-08T04:23:24.160Z,58.60
2023-01-08T04:25:52.415Z,58.80
2023-01-08T04:28:21.564Z,58.70
2023-01-08T04:30:49.935Z,58.60
2023-01-08T04:33:19.606Z,58.70
2023-01-08T04:35:47.927Z,58.70
2023-01-08T04:38:16.297Z,58.70
2023-01-08T04:40:44.613Z,58.70
2023-01-08T04:43:12.940Z,58.70
2023-01-08T04:45:41.213Z,58.70
2023-01-08T04:48:09.522Z,58.70
2023-01-08T04:50:39.243Z,58.60
2023-01-08T04:53:07.552Z,58.70
2023-01-08T04:55:36.740Z,58.60
2023-01-08T04:58:05.823Z,58.70
2023-01-08T05:00:34.249Z,58.60
2023-01-08T05:03:02.629Z,58.50
2023-01-08T05:05:31.090Z,58.50
2023-01-08T05:08:00.790Z,58.50
2023-01-08T05:10:29.112Z,59.00
2023-01-08T05:13:00.495Z,58.80
2023-01-08T05:15:29.806Z,58.60
2023-01-08T05:18:02.372Z,58.50
2023-01-08T05:20:31.033Z,58.60
2023-01-08T05:23:00.803Z,58.70
2023-01-08T05:25:29.297Z,58.70
2023-01-08T05:27:57.621Z,58.70
2023-01-08T05:30:25.981Z,58.80
2023-01-08T05:32:54.393Z,58.80
2023-01-08T05:35:22.758Z,58.80
2023-01-08T05:37:51.026Z,58.80
2023-01-08T05:40:20.689Z,58.80
2023-01-08T05:42:48.929Z,58.80
2023-01-08T05:45:17.448Z,58.70
2023-01-08T05:47:46.127Z,58.80
2023-01-08T05:50:14.494Z,59.00
2023-01-08T05:52:42.756Z,59.00
2023-01-08T05:55:11.828Z,58.90
2023-01-08T05:57:41.574Z,58.70
2023-01-08T06:00:12.100Z,58.90
2023-01-08T06:02:40.687Z,58.80
2023-01-08T06:05:09.446Z,58.90
2023-01-08T06:07:37.797Z,58.80
2023-01-08T06:10:07.451Z,58.80
2023-01-08T06:12:35.768Z,58.70
2023-01-08T06:15:06.821Z,58.70
2023-01-08T06:17:36.568Z,58.60
2023-01-08T06:20:06.312Z,58.70
2023-01-08T06:22:35.019Z,58.60
2023-01-08T06:25:03.439Z,58.70
2023-01-08T06:27:31.914Z,58.90
2023-01-08T06:30:00.205Z,58.80
2023-01-08T06:32:29.900Z,58.90
2023-01-08T06:34:58.154Z,58.90
2023-01-08T06:37:26.507Z,58.80
2023-01-08T06:39:54.827Z,58.90
2023-01-08T06:42:23.125Z,58.90
2023-01-08T06:44:51.439Z,58.80
2023-01-08T06:47:19.792Z,58.80
2023-01-08T06:49:49.458Z,58.70
2023-01-08T06:52:17.772Z,58.70
2023-01-08T06:54:46.044Z,58.50
2023-01-08T06:57:14.303Z,58.50
2023-01-08T06:59:42.626Z,58.40
2023-01-08T07:02:14.365Z,58.50
2023-01-08T07:04:42.976Z,58.30
2023-01-08T07:07:14.305Z,58.40
2023-01-08T07:09:43.132Z,58.40
2023-01-08T07:12:14.224Z,58.60
2023-01-08T07:14:42.705Z,58.60
2023-01-08T07:17:10.963Z,58.60
2023-01-08T07:19:39.254Z,58.70
2023-01-08T07:22:07.547Z,58.60
2023-01-08T07:24:37.180Z,58.50
2023-01-08T07:27:05.606Z,58.80
2023-01-08T07:29:33.804Z,58.70
2023-01-08T07:32:02.083Z,58.60
2023-01-08T07:34:30.316Z,58.70
2023-01-08T07:36:58.637Z,58.80
2023-01-08T07:39:26.913Z,58.70
2023-01-08T07:41:56.678Z,59.00
2023-01-08T07:44:24.977Z,58.90
2023-01-08T07:46:53.359Z,58.90
2023-01-08T07:49:21.794Z,58.80
2023-01-08T07:51:50.788Z,58.80
2023-01-08T07:54:19.202Z,58.80
2023-01-08T07:56:47.977Z,58.70
2023-01-08T07:59:17.692Z,58.90
2023-01-08T08:01:46.106Z,59.00
2023-01-08T08:04:16.495Z,59.20
2023-01-08T08:06:44.811Z,59.20
2023-01-08T08:09:13.201Z,59.50
2023-01-08T08:11:41.510Z,65.00
2023-01-08T08:14:10.149Z,64.70
2023-01-08T08:16:39.907Z,64.30
2023-01-08T08:19:08.201Z,63.30
2023-01-08T08:21:36.449Z,63.40
2023-01-08T08:24:05.465Z,63.20
2023-01-08T08:26:33.797Z,62.80
2023-01-08T08:29:02.141Z,62.60
2023-01-08T08:31:30.517Z,62.60
2023-01-08T08:34:00.251Z,63.20
2023-01-08T08:36:32.316Z,62.10
2023-01-08T08:39:00.814Z,61.20
2023-01-08T08:41:29.608Z,61.00
2023-01-08T08:43:57.836Z,61.00
2023-01-08T08:46:26.295Z,61.00
2023-01-08T08:48:54.635Z,61.00
2023-01-08T08:51:24.291Z,60.80
2023-01-08T08:53:52.598Z,60.50
2023-01-08T08:56:21.105Z,60.20
2023-01-08T08:58:50.629Z,60.30
2023-01-08T09:01:18.996Z,60.40
2023-01-08T09:03:47.337Z,60.50
2023-01-08T09:06:16.715Z,60.30
2023-01-08T09:08:46.386Z,60.30
2023-01-08T09:11:14.779Z,60.20
2023-01-08T09:13:43.125Z,60.20
2023-01-08T09:16:11.584Z,60.10
2023-01-08T09:18:39.971Z,60.10
2023-01-08T09:21:09.167Z,60.10
2023-01-08T09:23:38.665Z,60.00
2023-01-08T09:26:08.808Z,60.70
2023-01-08T09:28:38.012Z,60.00
2023-01-08T09:31:06.934Z,60.00
2023-01-08T09:33:36.411Z,59.90
2023-01-08T09:36:05.337Z,59.90
2023-01-08T09:38:33.651Z,59.80
2023-01-08T09:41:09.211Z,59.70
2023-01-08T09:43:41.567Z,59.80
2023-01-08T09:46:11.029Z,59.80
2023-01-08T09:48:42.373Z,59.90
2023-01-08T09:51:13.430Z,59.80
2023-01-08T09:53:43.149Z,59.80
2023-01-08T09:56:16.571Z,61.00
2023-01-08T09:58:48.979Z,62.50
2023-01-08T10:01:22.450Z,61.40
2023-01-08T10:03:54.863Z,60.90
2023-01-08T10:06:25.358Z,60.50
2023-01-08T10:08:54.142Z,60.40
2023-01-08T10:11:24.451Z,60.60
2023-01-08T10:13:56.206Z,60.40
2023-01-08T10:16:31.659Z,60.40
2023-01-08T10:19:01.748Z,60.50
2023-01-08T10:21:33.247Z,60.60
2023-01-08T10:24:01.611Z,60.50
2023-01-08T10:26:36.309Z,60.90
2023-01-08T10:29:16.263Z,62.80
2023-01-08T10:31:51.357Z,63.80
2023-01-08T10:34:33.539Z,63.70
2023-01-08T10:37:02.369Z,63.50
2023-01-08T10:39:33.159Z,63.70
2023-01-08T10:42:08.157Z,63.40
2023-01-08T10:44:37.460Z,63.10
2023-01-08T10:47:07.001Z,63.10
2023-01-08T10:49:41.820Z,63.40
2023-01-08T10:52:29.597Z,63.70
2023-01-08T10:54:57.958Z,64.40
2023-01-08T10:57:32.688Z,63.50
2023-01-08T11:00:01.057Z,63.80
2023-01-08T11:02:38.280Z,63.50
2023-01-08T11:05:11.271Z,63.00
2023-01-08T11:07:40.717Z,62.40
2023-01-08T11:10:24.685Z,62.30
2023-01-08T11:13:00.536Z,61.90
2023-01-08T11:15:40.283Z,60.70
2023-01-08T11:18:20.234Z,59.00
2023-01-08T11:20:49.983Z,56.10
2023-01-08T11:23:21.839Z,54.60
2023-01-08T11:26:01.016Z,53.30
2023-01-08T11:28:48.426Z,53.70
2023-01-08T11:31:24.413Z,57.80
2023-01-08T11:33:59.222Z,58.30
2023-01-08T11:36:34.559Z,56.80
2023-01-08T11:39:03.448Z,56.30
2023-01-08T11:42:01.697Z,57.10
2023-01-08T11:44:43.329Z,57.10
2023-01-08T11:47:21.208Z,58.30
2023-01-08T11:50:15.895Z,57.90
2023-01-08T11:52:56.757Z,58.20
2023-01-08T11:55:37.871Z,58.70
2023-01-08T11:58:31.831Z,58.70
2023-01-08T12:01:33.582Z,58.60
2023-01-08T12:04:27.149Z,58.50
2023-01-08T12:07:04.912Z,59.10
2023-01-08T12:09:41.828Z,58.90
2023-01-08T12:12:27.489Z,58.80
2023-01-08T12:15:13.433Z,58.40
2023-01-08T12:18:26.463Z,59.80
2023-01-08T12:21:05.534Z,62.90
2023-01-08T12:23:52.250Z,62.20
2023-01-08T12:26:27.553Z,61.60
2023-01-08T12:29:19.400Z,61.10
2023-01-08T12:32:22.616Z,60.30
2023-01-08T12:35:01.484Z,60.20
2023-01-08T12:37:40.231Z,59.80
2023-01-08T12:40:18.794Z,60.10
2023-01-08T12:42:59.920Z,60.30
2023-01-08T12:45:32.313Z,71.20
2023-01-08T12:48:07.498Z,70.60
2023-01-08T12:50:52.864Z,73.50
2023-01-08T12:53:32.550Z,71.80
2023-01-08T12:56:09.320Z,77.00
2023-01-08T12:58:55.099Z,78.60
2023-01-08T13:01:36.763Z,78.60
2023-01-08T13:04:07.942Z,87.20
2023-01-08T13:06:38.188Z,89.00
2023-01-08T13:09:06.983Z,89.60
2023-01-08T13:11:56.640Z,88.80
2023-01-08T13:14:27.414Z,82.40
2023-01-08T13:17:05.637Z,77.00
2023-01-08T13:19:41.790Z,71.20
2023-01-08T13:22:27.372Z,69.90
2023-01-08T13:25:33.125Z,68.70
2023-01-08T13:28:02.680Z,67.10
2023-01-08T13:30:38.268Z,66.10
2023-01-08T13:33:39.544Z,64.00
2023-01-08T13:36:26.470Z,62.90
2023-01-08T13:39:21.181Z,62.70
2023-01-08T13:42:04.484Z,61.70
2023-01-08T13:44:40.183Z,63.10
2023-01-08T13:47:28.746Z,60.00
2023-01-08T13:49:58.261Z,59.70
2023-01-08T13:52:40.458Z,59.70
2023-01-08T13:55:22.224Z,59.40
2023-01-08T13:57:57.368Z,59.00
2023-01-08T14:00:30.856Z,58.90
2023-01-08T14:02:59.441Z,58.70
2023-01-08T14:05:31.662Z,58.90
2023-01-08T14:08:00.655Z,58.50
2023-01-08T14:10:31.808Z,58.60
2023-01-08T14:13:08.048Z,58.30
2023-01-08T14:15:39.315Z,58.30
2023-01-08T14:18:08.027Z,58.20
2023-01-08T14:20:40.244Z,58.10
2023-01-08T14:23:14.362Z,57.90
2023-01-08T14:25:44.623Z,57.90
2023-01-08T14:28:18.540Z,57.70
2023-01-08T14:30:51.289Z,57.60
2023-01-08T14:33:26.096Z,57.60
2023-01-08T14:35:55.719Z,57.40
2023-01-08T14:38:24.379Z,59.50
2023-01-08T14:41:03.683Z,60.10
2023-01-08T14:43:36.209Z,59.60
2023-01-08T14:46:04.682Z,59.20
2023-01-08T14:48:40.553Z,59.00
2023-01-08T14:51:12.835Z,58.70
2023-01-08T14:53:47.427Z,58.70
2023-01-08T14:56:21.982Z,58.70
2023-01-08T14:58:50.946Z,58.80
2023-01-08T15:01:22.793Z,58.90
2023-01-08T15:03:53.752Z,59.10
2023-01-08T15:06:26.647Z,59.20
2023-01-08T15:08:55.651Z,59.30
2023-01-08T15:11:30.171Z,59.60
2023-01-08T15:14:00.126Z,59.40
2023-01-08T15:16:32.946Z,59.50
2023-01-08T15:19:08.642Z,59.50
2023-01-08T15:21:37.642Z,59.60
2023-01-08T15:24:08.526Z,59.40
2023-01-08T15:26:43.709Z,61.40
2023-01-08T15:29:20.168Z,60.80
2023-01-08T15:31:49.997Z,60.40
2023-01-08T15:34:21.519Z,60.50
2023-01-08T15:36:50.083Z,61.10
2023-01-08T15:39:18.476Z,60.90
2023-01-08T15:42:14.054Z,62.60
2023-01-08T15:44:42.339Z,62.10
2023-01-08T15:47:10.597Z,59.90
2023-01-08T15:49:38.949Z,60.00
2023-01-08T15:52:07.337Z,60.00
2023-01-08T15:54:35.643Z,59.90
2023-01-08T15:57:05.361Z,60.00
2023-01-08T15:59:37.312Z,60.10
2023-01-08T16:02:05.725Z,60.20
2023-01-08T16:04:34.075Z,60.30
2023-01-08T16:07:02.427Z,60.50
2023-01-08T16:09:30.987Z,60.50
2023-01-08T16:11:59.403Z,60.60
2023-01-08T16:14:33.695Z,60.20
2023-01-08T16:17:02.468Z,59.70
2023-01-08T16:19:31.899Z,59.20
2023-01-08T16:22:00.642Z,57.90
2023-01-08T16:24:29.225Z,57.80
2023-01-08T16:26:57.490Z,57.80
2023-01-08T16:29:27.613Z,57.80
2023-01-08T16:31:57.295Z,57.90
2023-01-08T16:34:26.252Z,57.90
2023-01-08T16:36:54.589Z,58.00
2023-01-08T16:39:23.137Z,57.90
2023-01-08T16:41:51.524Z,57.80
2023-01-08T16:44:22.332Z,58.50
2023-01-08T16:46:51.019Z,57.80
2023-01-08T16:49:20.728Z,57.80
2023-01-08T16:51:49.636Z,57.90
2023-01-08T16:54:18.927Z,57.80
2023-01-08T16:56:47.432Z,57.80
2023-01-08T16:59:23.197Z,57.80
2023-01-08T17:01:52.407Z,58.40
2023-01-08T17:04:22.418Z,58.10
2023-01-08T17:06:50.965Z,58.40
2023-01-08T17:09:19.277Z,58.80
2023-01-08T17:11:47.792Z,58.90
2023-01-08T17:14:16.594Z,59.10
2023-01-08T17:16:45.902Z,59.10
2023-01-08T17:19:14.572Z,59.30
2023-01-08T17:21:45.801Z,59.30
2023-01-08T17:24:14.164Z,58.80
2023-01-08T17:26:42.428Z,58.90
2023-01-08T17:29:10.725Z,58.60
2023-01-08T17:31:40.636Z,58.40
2023-01-08T17:34:12.852Z,58.40
2023-01-08T17:36:41.338Z,58.20
2023-01-08T17:39:12.904Z,57.90
2023-01-08T17:42:13.386Z,57.80
2023-01-08T17:44:41.710Z,57.10
2023-01-08T17:47:10.856Z,56.70
2023-01-08T17:49:39.717Z,59.00
2023-01-08T17:52:09.657Z,58.70
2023-01-08T17:54:39.320Z,59.60
2023-01-08T17:57:07.538Z,59.70
2023-01-08T17:59:35.817Z,59.70
2023-01-08T18:02:04.354Z,59.10
2023-01-08T18:04:33.128Z,58.70
2023-01-08T18:07:01.401Z,58.40
2023-01-08T18:09:29.644Z,58.10
2023-01-08T18:11:59.282Z,58.10
2023-01-08T18:14:29.163Z,57.90
2023-01-08T18:16:57.468Z,57.90
2023-01-08T18:19:26.211Z,57.80
2023-01-08T18:21:54.857Z,57.80
2023-01-08T18:24:23.244Z,57.70
2023-01-08T18:26:51.789Z,57.60
2023-01-08T18:29:21.542Z,57.80
2023-01-08T18:31:49.909Z,57.70
2023-01-08T18:34:19.480Z,57.70
2023-01-08T18:36:48.199Z,57.50
2023-01-08T18:39:16.770Z,57.70
2023-01-08T18:42:02.674Z,57.50
2023-01-08T18:44:32.764Z,57.70
2023-01-08T18:50:21.097Z,57.80
2023-01-08T18:52:49.503Z,57.70
2023-01-08T18:55:18.108Z,57.80
2023-01-08T18:57:48.908Z,57.70
2023-01-08T19:00:19.800Z,57.70
2023-01-08T19:06:14.174Z,57.80
2023-01-08T19:08:43.721Z,57.70
2023-01-08T19:11:14.350Z,57.90
2023-01-08T19:13:43.164Z,57.80
2023-01-08T19:16:17.264Z,57.30
2023-01-08T19:18:45.754Z,57.00
2023-01-08T19:21:17.794Z,57.00
2023-01-08T19:23:46.641Z,56.80
2023-01-08T19:35:56.473Z,56.90
2023-01-08T19:38:26.072Z,57.10
2023-01-08T19:41:00.142Z,57.30
2023-01-08T19:43:42.731Z,57.30
2023-01-08T19:46:15.578Z,57.40
2023-01-08T19:48:44.638Z,57.40
2023-01-08T19:51:15.296Z,57.40
2023-01-08T19:53:44.035Z,57.40
2023-01-08T19:56:15.503Z,57.70
2023-01-08T19:58:44.842Z,57.90
2023-01-08T20:01:15.521Z,57.90
2023-01-08T20:03:45.366Z,62.40
2023-01-08T20:06:20.145Z,62.50
2023-01-08T20:08:48.980Z,61.20
2023-01-08T20:11:18.850Z,61.00
2023-01-08T20:13:47.812Z,59.70
2023-01-08T20:16:31.399Z,59.80
2023-01-08T20:19:04.468Z,59.70
2023-01-08T20:21:36.079Z,59.60
2023-01-08T20:24:09.681Z,59.50
2023-01-08T20:26:39.730Z,59.20
2023-01-08T20:29:08.968Z,59.00
2023-01-08T20:31:40.128Z,59.10
2023-01-08T20:34:14.405Z,59.20
2023-01-08T20:36:46.848Z,58.90
2023-01-08T20:39:18.406Z,58.70
2023-01-08T20:41:55.457Z,58.80
2023-01-08T20:44:29.889Z,58.70
2023-01-08T20:46:58.716Z,58.60
2023-01-08T20:49:27.690Z,58.50
2023-01-08T20:52:00.043Z,58.60
2023-01-08T20:54:31.680Z,58.50
2023-01-08T20:57:01.793Z,58.40
2023-01-08T20:59:30.804Z,59.00
2023-01-08T21:02:01.638Z,58.80
2023-01-08T21:04:30.245Z,58.20
2023-01-08T21:07:00.895Z,58.10
2023-01-08T21:09:29.984Z,58.10
2023-01-08T21:11:58.802Z,58.20
2023-01-08T21:14:27.327Z,58.10
2023-01-08T21:16:56.497Z,57.90
2023-01-08T21:19:25.191Z,58.00
2023-01-08T21:21:54.212Z,57.80
2023-01-08T21:24:24.331Z,57.90
2023-01-08T21:26:52.808Z,57.90
2023-01-08T21:29:23.254Z,57.90
2023-01-08T21:31:52.175Z,57.90
2023-01-08T21:34:21.577Z,57.90
2023-01-08T21:36:50.246Z,57.90
2023-01-08T21:39:19.060Z,57.80
2023-01-08T21:42:06.457Z,57.80
2023-01-08T21:44:52.169Z,57.80
2023-01-08T21:47:21.344Z,57.80
2023-01-08T21:49:50.030Z,57.90
2023-01-08T21:52:43.698Z,59.10
2023-01-08T21:55:12.905Z,59.40
2023-01-08T21:57:42.800Z,58.90
2023-01-08T22:00:15.230Z,58.40
2023-01-08T22:02:45.945Z,58.50
2023-01-08T22:05:17.452Z,58.60
2023-01-08T22:07:46.016Z,58.50
2023-01-08T22:10:15.197Z,58.60
2023-01-08T22:12:49.415Z,58.60
2023-01-08T22:15:19.355Z,58.30
2023-01-08T22:17:47.860Z,58.50
2023-01-08T22:20:17.666Z,58.60
2023-01-08T22:22:47.109Z,58.60
2023-01-08T22:25:16.018Z,58.60
2023-01-08T22:27:45.820Z,57.80
2023-01-08T22:30:15.323Z,57.70
2023-01-08T22:32:44.241Z,57.90
2023-01-08T22:35:12.691Z,58.10
2023-01-08T22:37:43.524Z,58.00
2023-01-08T22:40:13.673Z,58.00
2023-01-08T22:42:42.119Z,57.90
2023-01-08T22:45:12.657Z,58.10
2023-01-08T22:47:41.063Z,57.80
2023-01-08T22:50:11.154Z,57.70
2023-01-08T22:52:39.718Z,57.60
2023-01-08T22:55:09.538Z,57.70
2023-01-08T22:57:37.983Z,57.60
2023-01-08T23:00:13.290Z,57.50
2023-01-08T23:02:41.854Z,57.70
2023-01-08T23:05:11.472Z,58.10
2023-01-08T23:07:39.881Z,58.40
2023-01-08T23:10:09.242Z,59.00
2023-01-08T23:12:37.911Z,58.80
2023-01-08T23:15:08.497Z,58.90
2023-01-08T23:17:47.926Z,58.80
2023-01-08T23:20:21.620Z,61.40
2023-01-08T23:22:50.685Z,61.40
2023-01-08T23:25:19.901Z,61.70
2023-01-08T23:27:48.285Z,64.00
2023-01-08T23:30:17.193Z,62.50
2023-01-08T23:32:47.352Z,65.50
2023-01-08T23:35:16.216Z,65.90
2023-01-08T23:37:45.000Z,67.10
2023-01-08T23:40:23.403Z,66.60
2023-01-08T23:42:52.184Z,66.30
2023-01-08T23:45:20.936Z,66.10
2023-01-08T23:47:51.151Z,66.30
2023-01-08T23:50:22.899Z,66.50
2023-01-08T23:52:54.143Z,66.00
2023-01-08T23:55:23.128Z,65.90
2023-01-08T23:57:52.222Z,65.90
